Time;durP1;ratioP1;P1;durP2;ratioP2;P2;SDS_P1;SDS_P2;PMS_P1;PMS_P2;Temp;Humidity;BMP_temperature;BMP_pressure;BME280_temperature;BME280_humidity;BME280_pressure;Samples;Min_cycle;Max_cycle;Signal;HPM_P1;HPM_P2
2022/08/07 00:00:27;;;;;;;2.75;1.52;;;;;;;13.49;87.04;102699.81;5077308;28;20101;-70
2022/08/07 00:02:56;;;;;;;1.98;1.17;;;;;;;13.49;85.71;102700.66;5070634;28;20054;-70
2022/08/07 00:05:23;;;;;;;3.35;1.65;;;;;;;13.44;85.29;102691.41;5081760;28;20119;-70
2022/08/07 00:07:48;;;;;;;2.22;1.50;;;;;;;13.47;87.58;102702.59;5074022;28;20037;-70
2022/08/07 00:10:14;;;;;;;4.03;2.15;;;;;;;13.35;88.80;102692.97;5076334;28;20049;-70
2022/08/07 00:12:39;;;;;;;4.80;2.65;;;;;;;13.22;90.88;102692.22;5081263;28;20020;-70
2022/08/07 00:15:05;;;;;;;3.75;1.75;;;;;;;13.10;91.21;102683.44;5072100;28;20025;-70
2022/08/07 00:17:31;;;;;;;3.15;1.60;;;;;;;13.05;92.01;102681.16;5076242;28;20039;-70
2022/08/07 00:19:56;;;;;;;4.32;1.70;;;;;;;13.06;89.52;102684.66;5072534;28;20021;-70
2022/08/07 00:22:21;;;;;;;3.22;1.58;;;;;;;13.08;87.39;102680.91;5076349;28;20065;-70
2022/08/07 00:24:47;;;;;;;2.78;1.60;;;;;;;13.13;85.33;102688.50;5080205;28;20605;-70
2022/08/07 00:27:12;;;;;;;2.28;1.42;;;;;;;13.17;85.83;102684.63;5075054;28;20395;-70
2022/08/07 00:29:38;;;;;;;2.85;1.42;;;;;;;13.20;85.27;102683.56;5075574;28;20136;-70
2022/08/07 00:32:05;;;;;;;3.00;1.75;;;;;;;13.23;84.93;102683.31;5074180;28;20095;-70
2022/08/07 00:34:31;;;;;;;1.98;1.27;;;;;;;13.23;84.86;102680.66;5075074;28;20039;-70
2022/08/07 00:36:56;;;;;;;2.33;1.48;;;;;;;13.24;84.48;102677.91;5072070;28;20051;-70
2022/08/07 00:39:21;;;;;;;4.72;2.28;;;;;;;13.24;84.49;102677.03;5078301;28;20373;-70
2022/08/07 00:41:53;;;;;;;3.25;1.95;;;;;;;13.22;84.90;102674.53;5077381;28;20038;-70
2022/08/07 00:44:18;;;;;;;2.42;1.42;;;;;;;13.21;84.16;102666.69;5076061;28;20368;-70
2022/08/07 00:46:44;;;;;;;2.92;2.17;;;;;;;13.21;85.17;102664.88;5073224;28;20343;-70
2022/08/07 00:49:09;;;;;;;2.65;1.52;;;;;;;13.18;85.43;102665.13;5072418;28;20115;-70
2022/08/07 00:51:35;;;;;;;2.92;1.80;;;;;;;13.16;86.40;102665.25;5076938;28;20516;-70
2022/08/07 00:54:00;;;;;;;3.17;2.00;;;;;;;13.14;89.74;102664.53;5074613;28;20115;-70
2022/08/07 00:56:27;;;;;;;2.28;1.42;;;;;;;13.10;91.34;102665.72;5073841;28;20031;-70
2022/08/07 00:58:53;;;;;;;3.08;1.52;;;;;;;12.96;91.62;102647.44;5075473;28;20020;-70
2022/08/07 01:01:19;;;;;;;2.80;1.50;;;;;;;12.96;91.90;102655.41;5070470;28;20546;-69
2022/08/07 01:03:45;;;;;;;3.22;2.22;;;;;;;13.04;90.52;102668.84;5075920;28;20429;-70
2022/08/07 01:06:11;;;;;;;3.53;1.67;;;;;;;12.95;88.18;102659.00;5071568;28;20039;-70
2022/08/07 01:08:36;;;;;;;2.22;1.70;;;;;;;13.02;87.31;102665.50;5077657;28;20377;-70
2022/08/07 01:11:02;;;;;;;2.67;1.90;;;;;;;13.02;87.93;102665.50;5073017;28;20036;-70
2022/08/07 01:13:27;;;;;;;5.63;2.00;;;;;;;13.05;90.34;102665.25;5074215;28;20097;-70
2022/08/07 01:15:55;;;;;;;3.28;1.90;;;;;;;12.90;90.25;102651.41;5093804;28;20031;-70
2022/08/07 01:18:21;;;;;;;2.35;1.70;;;;;;;13.01;89.89;102666.47;5071704;28;20325;-70
2022/08/07 01:21:07;;;;;;;7.07;1.48;;;;;;;13.01;91.51;102670.94;5076049;28;20055;-70
2022/08/07 01:23:33;;;;;;;3.05;2.38;;;;;;;12.96;92.50;102666.00;5069873;28;20024;-70
2022/08/07 01:25:59;;;;;;;2.88;2.03;;;;;;;12.90;93.14;102675.25;5079765;28;20040;-70
2022/08/07 01:28:25;;;;;;;3.60;1.88;;;;;;;12.86;92.42;102671.16;5073518;28;20052;-70
2022/08/07 01:30:52;;;;;;;4.35;2.53;;;;;;;12.75;94.00;102656.09;5076223;28;20546;-70
2022/08/07 01:33:18;;;;;;;5.80;2.70;;;;;;;12.65;95.86;102665.75;5071540;28;20012;-70
2022/08/07 01:35:44;;;;;;;4.60;2.50;;;;;;;12.53;95.96;102670.16;5074586;28;20447;-70
2022/08/07 01:38:10;;;;;;;2.50;1.98;;;;;;;12.35;98.21;102661.84;5076711;28;20480;-70
2022/08/07 01:40:38;;;;;;;4.50;2.97;;;;;;;12.18;99.34;102642.91;5075157;28;20024;-70
2022/08/07 01:43:03;;;;;;;6.53;3.03;;;;;;;11.94;100.00;102636.69;5073615;28;20028;-70
2022/08/07 01:45:29;;;;;;;8.40;3.75;;;;;;;11.96;100.00;102662.22;5071241;28;20037;-70
2022/08/07 01:47:55;;;;;;;2.45;2.00;;;;;;;11.86;100.00;102652.25;5074091;28;20444;-70
2022/08/07 01:50:21;;;;;;;3.70;2.90;;;;;;;11.75;100.00;102646.94;5077082;28;20056;-70
2022/08/07 01:52:51;;;;;;;5.68;3.42;;;;;;;11.59;100.00;102651.69;5069881;28;20033;-70
2022/08/07 01:55:17;;;;;;;5.22;2.80;;;;;;;11.60;100.00;102669.22;5077158;28;20025;-70
2022/08/07 01:57:44;;;;;;;4.50;2.90;;;;;;;11.50;100.00;102661.13;5072524;28;20494;-70
2022/08/07 02:00:12;;;;;;;2.85;1.65;;;;;;;11.34;100.00;102671.94;5072952;28;20459;-70
2022/08/07 02:02:43;;;;;;;3.45;2.03;;;;;;;11.32;100.00;102664.16;5069741;28;20031;-70
2022/08/07 02:05:13;;;;;;;4.35;2.60;;;;;;;11.24;100.00;102665.66;5075858;28;20102;-70
2022/08/07 02:07:45;;;;;;;3.15;1.92;;;;;;;11.06;100.00;102644.88;5074878;28;20032;-70
2022/08/07 02:10:12;;;;;;;4.63;2.15;;;;;;;10.92;100.00;102645.00;5075306;28;20039;-70
2022/08/07 02:12:41;;;;;;;8.18;2.38;;;;;;;10.93;100.00;102659.91;5073817;28;20385;-70
2022/08/07 02:15:07;;;;;;;4.43;2.30;;;;;;;10.90;100.00;102655.66;5071226;28;20097;-70
2022/08/07 02:17:34;;;;;;;5.35;2.83;;;;;;;10.83;100.00;102648.28;5072930;28;20090;-69
2022/08/07 02:20:01;;;;;;;4.22;2.40;;;;;;;10.77;100.00;102654.81;5071066;28;20031;-69
2022/08/07 02:22:29;;;;;;;6.55;3.08;;;;;;;10.73;100.00;102647.22;5059230;28;20024;-70
2022/08/07 02:24:56;;;;;;;3.15;1.83;;;;;;;10.76;100.00;102649.69;5072187;28;20392;-69
2022/08/07 02:27:23;;;;;;;3.35;1.65;;;;;;;10.79;100.00;102645.00;5075103;28;20035;-70
2022/08/07 02:29:50;;;;;;;5.15;2.33;;;;;;;10.83;100.00;102648.28;5073340;28;20322;-70
2022/08/07 02:32:18;;;;;;;6.00;3.40;;;;;;;10.86;100.00;102645.41;5070394;28;20016;-69
2022/08/07 02:34:47;;;;;;;3.33;2.28;;;;;;;10.87;100.00;102633.91;5070659;28;20032;-70
2022/08/07 02:37:14;;;;;;;2.75;1.75;;;;;;;10.98;100.00;102639.28;5074550;28;20069;-70
2022/08/07 02:39:43;;;;;;;3.03;1.95;;;;;;;10.94;100.00;102621.94;5074147;28;20074;-69
2022/08/07 02:42:10;;;;;;;3.08;1.95;;;;;;;10.98;100.00;102623.44;5069776;28;20031;-69
2022/08/07 02:44:38;;;;;;;4.95;2.80;;;;;;;11.12;100.00;102638.28;5072548;28;20501;-69
2022/08/07 02:47:05;;;;;;;5.10;2.33;;;;;;;11.18;100.00;102639.66;5077018;28;20020;-70
2022/08/07 02:49:32;;;;;;;4.82;2.95;;;;;;;11.19;100.00;102643.97;5075536;28;20026;-70
2022/08/07 02:51:59;;;;;;;3.53;2.05;;;;;;;11.23;100.00;102629.59;5073723;28;20028;-70
2022/08/07 02:54:28;;;;;;;3.63;2.00;;;;;;;11.24;100.00;102626.00;5075406;28;20442;-70
2022/08/07 02:56:56;;;;;;;3.53;1.65;;;;;;;11.33;100.00;102636.75;5071815;28;20446;-70
2022/08/07 02:59:25;;;;;;;3.53;2.33;;;;;;;11.30;100.00;102620.25;5069922;28;20039;-70
2022/08/07 03:01:51;;;;;;;3.85;2.35;;;;;;;11.40;100.00;102629.22;5073306;28;20028;-70
2022/08/07 03:04:18;;;;;;;6.00;3.15;;;;;;;11.42;100.00;102629.94;5072677;28;20089;-70
2022/08/07 03:06:46;;;;;;;3.83;2.58;;;;;;;11.38;100.00;102623.19;5072161;28;20460;-70
2022/08/07 03:09:12;;;;;;;3.92;2.33;;;;;;;11.34;100.00;102629.66;5071954;28;20439;-70
2022/08/07 03:11:38;;;;;;;4.35;1.92;;;;;;;11.33;100.00;102635.91;5071497;28;20069;-70
2022/08/07 03:14:05;;;;;;;3.38;2.72;;;;;;;11.37;100.00;102640.03;5057499;28;20036;-70
2022/08/07 03:16:31;;;;;;;3.78;2.67;;;;;;;11.32;100.00;102623.63;5076733;28;20024;-70
2022/08/07 03:18:58;;;;;;;5.45;2.05;;;;;;;11.27;100.00;102620.47;5079168;28;20028;-70
2022/08/07 03:21:26;;;;;;;2.97;1.90;;;;;;;11.32;100.00;102623.63;5076744;28;20024;-70
2022/08/07 03:23:55;;;;;;;3.47;2.15;;;;;;;11.31;100.00;102624.59;5077365;28;20465;-70
2022/08/07 03:26:24;;;;;;;3.70;2.78;;;;;;;11.37;100.00;102629.44;5075379;28;20089;-70
2022/08/07 03:28:50;;;;;;;3.17;1.40;;;;;;;11.43;100.00;102630.78;5077333;28;20109;-70
2022/08/07 03:31:20;;;;;;;2.70;1.80;;;;;;;11.46;100.00;102626.13;5058509;28;20052;-70
2022/08/07 03:33:52;;;;;;;3.60;1.60;;;;;;;11.58;100.00;102629.66;5075767;28;20480;-70
2022/08/07 03:36:20;;;;;;;1.67;1.13;;;;;;;11.62;100.00;102628.47;5077214;28;20031;-70
2022/08/07 03:38:47;;;;;;;8.80;1.70;;;;;;;11.64;99.72;102621.28;5074939;28;20025;-70
2022/08/07 03:41:14;;;;;;;2.28;1.80;;;;;;;11.60;99.18;102606.59;5076269;28;20016;-70
2022/08/07 03:43:40;;;;;;;2.53;1.40;;;;;;;11.67;98.79;102620.19;5076397;28;20020;-70
2022/08/07 03:46:06;;;;;;;2.90;1.88;;;;;;;11.71;98.52;102619.03;5078700;28;20543;-70
2022/08/07 03:48:33;;;;;;;2.28;1.75;;;;;;;11.66;98.73;102610.59;5076481;28;20046;-70
2022/08/07 03:51:01;;;;;;;4.63;2.03;;;;;;;11.71;97.79;102621.66;5075096;28;20024;-70
2022/08/07 03:53:26;;;;;;;4.45;2.65;;;;;;;11.74;98.45;102619.66;5078641;28;20028;-70
2022/08/07 03:55:52;;;;;;;2.80;1.25;;;;;;;11.70;98.01;102617.34;5077188;28;20089;-70
2022/08/07 03:58:20;;;;;;;2.17;1.23;;;;;;;11.69;96.82;102610.34;5077341;28;20109;-70
2022/08/07 04:00:47;;;;;;;4.07;2.22;;;;;;;11.76;96.01;102627.47;5074276;28;20384;-70
2022/08/07 04:03:13;;;;;;;2.90;1.65;;;;;;;11.80;96.78;102626.28;5078386;28;20016;-70
2022/08/07 04:05:38;;;;;;;3.30;1.73;;;;;;;11.75;96.05;102617.84;5073945;28;20607;-70
2022/08/07 04:08:04;;;;;;;2.88;1.58;;;;;;;11.79;96.80;102621.94;5076369;28;20032;-70
2022/08/07 04:10:31;;;;;;;3.00;2.03;;;;;;;11.72;96.88;102610.13;5074675;28;20079;-70
2022/08/07 04:12:57;;;;;;;2.92;1.50;;;;;;;11.85;95.66;102625.94;5076562;28;20024;-70
2022/08/07 04:15:22;;;;;;;3.65;1.92;;;;;;;11.74;96.15;102603.78;5074298;28;20032;-70
2022/08/07 04:17:48;;;;;;;3.03;1.65;;;;;;;11.85;96.47;102621.50;5073059;28;20082;-69
2022/08/07 04:20:15;;;;;;;4.18;2.80;;;;;;;11.85;96.00;102621.50;5075010;28;20132;-69
2022/08/07 04:22:40;;;;;;;4.97;2.30;;;;;;;11.70;95.83;102604.97;5077126;28;20032;-70
2022/08/07 04:25:08;;;;;;;3.50;1.88;;;;;;;11.78;96.09;102625.56;5059408;28;20024;-70
2022/08/07 04:27:34;;;;;;;2.53;1.67;;;;;;;11.86;96.05;102627.63;5076610;28;20070;-70
2022/08/07 04:29:59;;;;;;;5.32;1.90;;;;;;;11.88;96.38;102620.44;5072367;28;20512;-70
2022/08/07 04:32:25;;;;;;;10.88;2.35;;;;;;;11.89;95.96;102622.16;5075241;28;20032;-70
2022/08/07 04:34:52;;;;;;;4.53;1.90;;;;;;;11.77;96.76;102602.69;5072773;28;20377;-70
2022/08/07 04:37:18;;;;;;;4.05;2.08;;;;;;;11.85;97.74;102621.50;5078841;28;20231;-70
2022/08/07 04:39:44;;;;;;;8.43;2.75;;;;;;;11.81;98.38;102619.19;5077131;28;20579;-70
2022/08/07 04:42:09;;;;;;;7.15;2.35;;;;;;;11.81;98.00;102619.19;5075678;28;20028;-70
2022/08/07 04:44:35;;;;;;;2.83;1.92;;;;;;;11.83;98.48;102618.13;5075563;28;20098;-70
2022/08/07 04:47:12;;;;;;;4.95;2.35;;;;;;;11.78;98.00;102617.63;5071762;28;20115;-70
2022/08/07 04:49:41;;;;;;;4.28;2.00;;;;;;;11.90;98.53;102627.31;5077119;28;20028;-70
2022/08/07 04:52:15;;;;;;;2.70;1.73;;;;;;;11.89;97.93;102627.44;5075145;28;20369;-70
2022/08/07 04:55:09;;;;;;;2.30;1.40;;;;;;;11.89;98.77;102635.38;5075625;28;20031;-70
2022/08/07 04:57:52;;;;;;;2.72;1.40;;;;;;;11.90;99.02;102624.66;5074783;28;20094;-70
2022/08/07 05:00:28;;;;;;;2.20;1.50;;;;;;;12.05;97.41;102638.53;5072667;28;20463;-70
2022/08/07 05:03:10;;;;;;;2.42;1.60;;;;;;;12.13;97.50;102624.75;5071011;28;20215;-70
2022/08/07 05:05:53;;;;;;;2.67;1.42;;;;;;;12.21;94.62;102632.91;5072631;28;20699;-70
2022/08/07 05:08:44;;;;;;;3.60;2.03;;;;;;;12.30;93.96;102636.66;5074491;28;20043;-70
2022/08/07 05:11:23;;;;;;;4.30;1.50;;;;;;;12.33;92.63;102624.03;5074386;28;20082;-70
2022/08/07 05:14:09;;;;;;;3.00;1.80;;;;;;;12.41;94.59;102634.06;5072681;28;20028;-70
2022/08/07 05:16:37;;;;;;;3.72;2.00;;;;;;;12.35;96.06;102639.81;5073101;28;20028;-70
2022/08/07 05:19:08;;;;;;;4.80;2.50;;;;;;;12.16;97.32;102619.19;5075594;28;20027;-70
2022/08/07 05:21:35;;;;;;;6.78;2.90;;;;;;;12.17;98.00;102634.09;5071786;28;20020;-70
2022/08/07 05:24:03;;;;;;;2.88;2.17;;;;;;;12.19;98.67;102634.84;5078653;28;20031;-70
2022/08/07 05:26:31;;;;;;;5.22;2.88;;;;;;;12.23;98.81;102641.59;5075477;28;20052;-70
2022/08/07 05:29:00;;;;;;;5.65;2.75;;;;;;;12.33;99.56;102639.09;5077052;28;20547;-70
2022/08/07 05:31:28;;;;;;;2.72;1.83;;;;;;;12.41;99.13;102641.13;5076914;28;20078;-70
2022/08/07 05:33:56;;;;;;;6.28;2.88;;;;;;;12.48;98.58;102645.03;5072383;28;20032;-70
2022/08/07 05:36:22;;;;;;;4.75;2.67;;;;;;;12.50;98.37;102633.34;5076987;28;20063;-70
2022/08/07 05:38:50;;;;;;;3.90;1.90;;;;;;;12.46;98.59;102631.06;5074842;28;20071;-70
2022/08/07 05:41:16;;;;;;;3.40;2.17;;;;;;;12.42;98.31;102624.31;5072858;28;20028;-70
2022/08/07 05:43:45;;;;;;;3.10;1.88;;;;;;;12.51;97.92;102634.19;5072522;28;20078;-70
2022/08/07 05:46:11;;;;;;;3.92;2.22;;;;;;;12.47;98.59;102622.97;5073368;28;20020;-70
2022/08/07 05:48:37;;;;;;;3.90;1.73;;;;;;;12.62;98.97;102626.22;5075359;28;20021;-70
2022/08/07 05:51:02;;;;;;;4.80;3.35;;;;;;;12.77;98.74;102635.63;5078161;28;20255;-70
2022/08/07 05:53:28;;;;;;;3.95;2.65;;;;;;;12.87;98.20;102634.91;5071656;28;20035;-70
2022/08/07 05:55:55;;;;;;;3.83;2.03;;;;;;;12.84;98.00;102620.09;5071515;28;20130;-70
2022/08/07 05:58:26;;;;;;;3.72;2.30;;;;;;;13.12;98.25;102645.25;5069599;28;20128;-70
2022/08/07 06:00:52;;;;;;;2.67;2.05;;;;;;;13.26;96.58;102648.59;5068621;28;20035;-70
2022/08/07 06:03:19;;;;;;;3.22;2.50;;;;;;;13.42;95.71;102646.44;5071439;28;20500;-70
2022/08/07 06:05:47;;;;;;;3.50;1.83;;;;;;;13.63;94.37;102658.91;5070712;28;20020;-70
2022/08/07 06:08:15;;;;;;;4.32;1.85;;;;;;;13.74;93.60;102645.59;5075327;28;20063;-70
2022/08/07 06:10:41;;;;;;;3.03;2.25;;;;;;;14.04;93.82;102660.78;5077690;28;20027;-70
2022/08/07 06:13:06;;;;;;;2.22;1.45;;;;;;;14.26;90.98;102670.44;5071986;28;20028;-70
2022/08/07 06:15:34;;;;;;;2.60;1.67;;;;;;;14.43;90.16;102668.16;5077422;28;20039;-70
2022/08/07 06:18:01;;;;;;;4.53;1.45;;;;;;;14.65;89.34;102670.69;5074754;28;20494;-70
2022/08/07 06:20:28;;;;;;;2.13;1.33;;;;;;;14.73;87.51;102660.25;5062206;28;20104;-70
2022/08/07 06:22:55;;;;;;;4.63;2.00;;;;;;;14.96;87.52;102660.03;5072766;28;20074;-70
2022/08/07 06:25:21;;;;;;;4.30;1.50;;;;;;;15.21;87.94;102672.88;5075263;28;20016;-70
2022/08/07 06:27:46;;;;;;;3.00;2.03;;;;;;;15.39;86.18;102669.53;5057763;28;20028;-70
2022/08/07 06:30:12;;;;;;;3.55;2.10;;;;;;;15.63;85.24;102680.66;5075563;28;20131;-70
2022/08/07 06:32:38;;;;;;;3.58;1.60;;;;;;;15.77;84.54;102666.13;5073024;28;20048;-70
2022/08/07 06:35:04;;;;;;;2.60;2.00;;;;;;;15.89;84.22;102669.47;5073647;28;20393;-70
2022/08/07 06:37:29;;;;;;;3.47;2.13;;;;;;;16.09;83.60;102681.00;5078138;28;20032;-70
2022/08/07 06:39:54;;;;;;;3.40;2.00;;;;;;;16.27;83.07;102673.09;5070914;28;20020;-70
2022/08/07 06:42:25;;;;;;;3.70;2.25;;;;;;;16.37;82.02;102681.06;5077115;28;20119;-70
2022/08/07 06:44:52;;;;;;;;;;;;;;;16.51;81.88;102679.78;5072055;28;20436;-70
2022/08/07 06:47:18;;;;;;;3.83;2.15;;;;;;;16.82;81.53;102672.41;5076140;28;19962;-70
2022/08/07 06:49:44;;;;;;;2.83;1.48;;;;;;;17.11;81.57;102664.25;5074878;28;20331;-70
2022/08/07 06:52:11;;;;;;;3.92;2.22;;;;;;;17.77;78.99;102654.25;5068968;28;20089;-70
2022/08/07 06:54:39;;;;;;;2.42;1.45;;;;;;;18.03;75.46;102670.34;5075321;28;20020;-71
2022/08/07 06:57:07;;;;;;;2.50;1.92;;;;;;;18.51;75.34;102674.41;5077128;28;20081;-71
2022/08/07 06:59:35;;;;;;;4.13;1.85;;;;;;;18.80;72.53;102674.06;5078194;28;20457;-71
2022/08/07 07:02:01;;;;;;;2.53;1.92;;;;;;;19.19;71.49;102665.53;5077789;28;20031;-71
2022/08/07 07:04:30;;;;;;;2.13;1.33;;;;;;;19.30;70.24;102667.91;5073563;28;20027;-71
2022/08/07 07:06:55;;;;;;;2.35;1.50;;;;;;;19.26;69.58;102655.84;5056715;28;20119;-71
2022/08/07 07:09:25;;;;;;;1.58;1.00;;;;;;;19.57;70.02;102673.13;5076342;28;20438;-70
2022/08/07 07:12:13;;;;;;;2.10;1.38;;;;;;;20.85;66.68;102665.34;5074999;28;20028;-70
2022/08/07 07:14:48;;;;;;;1.73;1.25;;;;;;;21.74;64.19;102663.16;5069690;28;20071;-71
2022/08/07 07:17:31;;;;;;;2.75;1.33;;;;;;;22.28;60.74;102675.66;5077343;28;20031;-71
2022/08/07 07:19:59;;;;;;;1.73;1.02;;;;;;;22.57;61.82;102675.66;5073328;28;20488;-70
2022/08/07 07:22:27;;;;;;;2.47;1.00;;;;;;;23.26;59.78;102671.81;5074694;28;20139;-71
2022/08/07 07:24:53;;;;;;;1.80;1.25;;;;;;;23.94;58.26;102657.97;5067693;28;20043;-71
2022/08/07 07:27:23;;;;;;;2.20;1.30;;;;;;;23.00;57.48;102670.47;5080128;28;20020;-71
2022/08/07 07:29:53;;;;;;;2.33;0.97;;;;;;;23.70;58.58;102665.41;5068413;28;20378;-71
2022/08/07 07:32:22;;;;;;;1.27;0.80;;;;;;;24.80;55.42;102655.84;5081550;28;20078;-71
2022/08/07 07:34:52;;;;;;;1.65;1.10;;;;;;;25.18;53.57;102676.13;5071035;28;20036;-71
2022/08/07 07:37:19;;;;;;;1.80;1.00;;;;;;;25.31;54.41;102668.09;5074360;28;20438;-71
2022/08/07 07:39:47;;;;;;;2.38;0.98;;;;;;;25.92;52.32;102669.03;5078496;28;20024;-71
2022/08/07 07:42:15;;;;;;;1.58;0.98;;;;;;;25.93;52.45;102670.66;5070791;28;20104;-71
2022/08/07 07:44:44;;;;;;;2.05;1.00;;;;;;;26.32;52.70;102663.56;5081921;28;20012;-71
2022/08/07 07:47:11;;;;;;;1.65;0.90;;;;;;;27.32;50.55;102666.75;5076226;28;20028;-71
2022/08/07 07:49:39;;;;;;;1.92;1.02;;;;;;;28.06;48.54;102664.31;5075425;28;20028;-71
2022/08/07 07:52:06;;;;;;;1.85;0.82;;;;;;;28.43;46.98;102650.78;5074893;28;20029;-71
2022/08/07 07:54:32;;;;;;;1.40;1.00;;;;;;;28.55;46.42;102645.44;5069337;28;20016;-71
2022/08/07 07:56:59;;;;;;;2.45;1.10;;;;;;;27.38;46.95;102652.31;5066408;28;20400;-71
2022/08/07 07:59:26;;;;;;;2.78;1.10;;;;;;;26.97;49.63;102656.28;5077033;28;20295;-71
2022/08/07 08:01:53;;;;;;;1.73;0.90;;;;;;;27.59;46.81;102653.00;5081050;28;20080;-71
2022/08/07 08:04:20;;;;;;;1.30;0.85;;;;;;;28.54;46.94;102654.66;5075248;28;20396;-71
2022/08/07 08:06:46;;;;;;;2.15;1.20;;;;;;;28.82;44.36;102656.81;5076146;28;20092;-71
2022/08/07 08:09:15;;;;;;;1.50;1.20;;;;;;;28.89;44.69;102649.41;5072289;28;20046;-71
2022/08/07 08:11:42;;;;;;;2.00;1.20;;;;;;;28.84;44.82;102641.13;5071407;28;20598;-71
2022/08/07 08:14:08;;;;;;;1.83;1.25;;;;;;;29.43;41.74;102647.59;5078330;28;20039;-72
2022/08/07 08:16:37;;;;;;;1.70;1.20;;;;;;;27.39;46.21;102637.69;5081911;28;20024;-71
2022/08/07 08:19:06;;;;;;;1.17;1.00;;;;;;;28.48;46.09;102626.50;5080765;28;20043;-71
2022/08/07 08:27:10;;;;;;;1.90;1.25;;;;;;;30.08;41.87;102645.91;5075685;28;20043;-71
2022/08/07 08:29:59;;;;;;;2.50;1.52;;;;;;;27.75;44.17;102636.19;5072747;28;20044;-71
2022/08/07 08:32:28;;;;;;;2.08;1.15;;;;;;;25.87;47.36;102629.03;5069008;28;20031;-71
2022/08/07 08:34:57;;;;;;;2.97;1.42;;;;;;;24.87;49.65;102631.56;5071615;28;20070;-71
2022/08/07 08:37:25;;;;;;;1.55;0.93;;;;;;;25.11;52.27;102629.34;5072657;28;20042;-71
2022/08/07 08:39:53;;;;;;;1.83;1.30;;;;;;;27.64;47.15;102615.22;5069331;28;20031;-71
2022/08/07 08:42:37;;;;;;;2.65;1.38;;;;;;;29.04;43.87;102625.34;5075930;28;20043;-71
2022/08/07 08:45:13;;;;;;;2.95;1.25;;;;;;;28.23;44.89;102624.69;5075287;28;20024;-71
2022/08/07 08:48:00;;;;;;;3.78;1.00;;;;;;;27.65;45.31;102628.53;5081224;28;20417;-71
2022/08/07 08:51:06;;;;;;;2.53;1.30;;;;;;;27.64;44.44;102617.91;5072429;28;20021;-71
2022/08/07 08:53:50;;;;;;;1.70;1.25;;;;;;;27.57;45.83;102627.97;5070416;28;20029;-71
2022/08/07 08:56:23;;;;;;;2.40;1.13;;;;;;;29.07;44.64;102624.91;5071026;28;20028;-71
2022/08/07 08:59:00;;;;;;;2.38;1.35;;;;;;;29.72;44.74;102628.75;5083254;28;20476;-71
2022/08/07 09:01:33;;;;;;;2.00;1.00;;;;;;;30.34;40.96;102618.19;5082963;28;20023;-71
2022/08/07 09:04:07;;;;;;;2.30;1.30;;;;;;;29.81;42.59;102618.31;5073323;28;20068;-71
2022/08/07 09:06:55;;;;;;;2.80;1.40;;;;;;;31.93;40.50;102623.75;5052366;28;20392;-71
2022/08/07 09:09:31;;;;;;;2.03;1.20;;;;;;;31.22;40.23;102620.69;5074478;28;20488;-71
2022/08/07 09:12:25;;;;;;;2.25;1.08;;;;;;;32.79;39.97;102628.72;5070275;28;20050;-72
2022/08/07 09:15:00;;;;;;;2.25;1.00;;;;;;;33.58;37.93;102638.19;5074028;28;20086;-71
2022/08/07 09:17:40;;;;;;;2.20;1.15;;;;;;;31.05;40.18;102636.22;5077147;28;20067;-71
2022/08/07 09:20:17;;;;;;;;;;;;;;;29.61;41.15;102621.38;5076418;28;20081;-71
2022/08/07 09:23:04;;;;;;;1.60;1.20;;;;;;;29.12;42.68;102625.06;5079876;28;19935;-71
2022/08/07 09:25:38;;;;;;;1.45;1.00;;;;;;;30.03;41.24;102634.88;5076440;28;20023;-71
2022/08/07 09:28:04;;;;;;;2.55;1.30;;;;;;;29.92;40.88;102633.81;5083545;28;20436;-71
2022/08/07 09:30:44;;;;;;;2.58;1.05;;;;;;;28.61;42.02;102618.19;5084855;28;20138;-71
2022/08/07 09:33:39;;;;;;;1.77;1.10;;;;;;;28.10;45.89;102624.81;5078010;28;20297;-71
2022/08/07 09:36:14;;;;;;;2.03;1.25;;;;;;;28.99;42.57;102621.69;5076675;28;20278;-71
2022/08/07 09:38:56;;;;;;;1.42;1.02;;;;;;;31.29;40.89;102615.94;5069785;28;20063;-71
2022/08/07 09:41:43;;;;;;;2.90;1.00;;;;;;;29.51;40.70;102620.06;5070808;28;20480;-71
2022/08/07 09:44:35;;;;;;;1.33;0.95;;;;;;;28.38;44.18;102612.63;5076596;28;20024;-71
2022/08/07 09:47:16;;;;;;;1.92;1.27;;;;;;;30.31;42.26;102617.84;5077856;28;20035;-71
2022/08/07 09:49:55;;;;;;;2.00;1.25;;;;;;;31.23;41.07;102618.78;5072228;28;20027;-71
2022/08/07 09:52:45;;;;;;;2.40;1.15;;;;;;;30.30;40.15;102602.56;5076689;28;20447;-71
2022/08/07 09:55:21;;;;;;;2.78;0.88;;;;;;;28.49;41.26;102604.56;5077555;28;20043;-71
2022/08/07 09:58:23;;;;;;;3.58;1.10;;;;;;;28.90;43.07;102602.16;5069454;28;20488;-71
2022/08/07 10:01:14;;;;;;;1.50;0.77;;;;;;;30.18;40.64;102605.28;5074889;28;20032;-71
2022/08/07 10:04:13;;;;;;;1.33;0.90;;;;;;;29.91;43.61;102600.34;5068893;28;20024;-71
2022/08/07 10:06:41;;;;;;;1.27;0.80;;;;;;;30.55;39.37;102602.25;5080388;28;20049;-71
2022/08/07 10:09:26;;;;;;;2.08;1.23;;;;;;;30.84;39.96;102602.28;5076237;28;20099;-71
2022/08/07 10:12:27;;;;;;;1.85;1.10;;;;;;;34.10;38.89;102602.91;5070348;28;20455;-71
2022/08/07 10:15:20;;;;;;;2.55;1.08;;;;;;;36.16;34.82;102599.25;5031413;28;20048;-71
2022/08/07 10:17:51;;;;;;;2.08;1.00;;;;;;;37.30;34.41;102600.16;5026911;28;20033;-72
2022/08/07 10:20:54;;;;;;;1.83;0.95;;;;;;;38.03;34.54;102599.97;5030884;28;20033;-71
2022/08/07 10:23:59;;;;;;;1.73;1.33;;;;;;;35.63;34.05;102594.19;5025032;28;20029;-71
2022/08/07 10:27:01;;;;;;;1.48;1.08;;;;;;;36.27;32.65;102584.34;5026204;28;20740;-71
2022/08/07 10:29:39;;;;;;;1.58;1.10;;;;;;;35.84;35.04;102567.47;5029992;28;20121;-71
2022/08/07 10:32:20;;;;;;;1.60;1.02;;;;;;;32.96;36.38;102557.50;5026472;28;20595;-72
2022/08/07 10:35:09;;;;;;;1.27;1.00;;;;;;;32.30;37.16;102571.28;5026281;28;20123;-72
2022/08/07 10:37:41;;;;;;;2.87;1.00;;;;;;;34.00;35.87;102552.47;5028350;28;20033;-71
2022/08/07 10:40:28;;;;;;;1.88;1.30;;;;;;;34.98;36.45;102558.22;5034286;28;20021;-71
2022/08/07 10:43:28;;;;;;;2.70;1.05;;;;;;;36.58;33.65;102562.16;5026389;28;20037;-71
2022/08/07 10:46:29;;;;;;;1.95;1.13;;;;;;;37.06;32.67;102551.34;5023587;28;20037;-71
2022/08/07 10:49:30;;;;;;;2.22;0.70;;;;;;;35.73;32.95;102549.38;5024293;28;20021;-71
2022/08/07 10:52:36;;;;;;;1.42;0.90;;;;;;;33.86;34.55;102547.75;5018563;28;20045;-71
2022/08/07 10:55:16;;;;;;;1.52;0.82;;;;;;;33.99;36.18;102542.63;4984494;28;20237;-71
2022/08/07 10:57:50;;;;;;;1.88;1.10;;;;;;;35.89;33.69;102542.75;4987107;28;20034;-71
2022/08/07 11:00:17;;;;;;;1.33;0.88;;;;;;;35.45;32.96;102548.88;4986684;28;20052;-71
2022/08/07 11:02:51;;;;;;;2.25;1.02;;;;;;;34.55;38.05;102547.47;4988263;28;20128;-71
2022/08/07 11:05:43;;;;;;;1.60;1.00;;;;;;;36.13;34.75;102544.84;4984646;28;20113;-71
2022/08/07 11:08:44;;;;;;;2.17;1.02;;;;;;;34.77;35.36;102541.75;4986251;28;20427;-71
2022/08/07 11:11:32;;;;;;;0.77;0.60;;;;;;;35.68;35.71;102532.94;4899592;29;20040;-71
2022/08/07 11:14:03;;;;;;;1.02;0.80;;;;;;;37.17;32.93;102533.69;4898930;29;20422;-71
2022/08/07 11:16:45;;;;;;;2.67;1.10;;;;;;;38.43;31.45;102528.81;4897581;29;20047;-71
2022/08/07 11:19:22;;;;;;;1.08;0.70;;;;;;;39.57;29.87;102519.41;4906705;29;20170;-71
2022/08/07 11:21:58;;;;;;;1.45;0.80;;;;;;;39.76;30.21;102513.78;4898569;29;20535;-71
2022/08/07 11:25:04;;;;;;;1.13;0.90;;;;;;;39.23;31.57;102512.34;4907222;29;20072;-71
2022/08/07 11:27:48;;;;;;;1.52;0.88;;;;;;;40.00;30.39;102514.38;4900033;28;20040;-71
2022/08/07 11:30:16;;;;;;;2.03;1.10;;;;;;;38.57;30.04;102508.81;4993329;28;20150;-71
2022/08/07 11:32:44;;;;;;;1.92;0.80;;;;;;;37.30;30.93;102512.06;4985839;28;20077;-71
2022/08/07 11:35:17;;;;;;;1.80;1.00;;;;;;;37.59;32.56;102501.84;4984582;28;20026;-71
2022/08/07 11:37:49;;;;;;;1.17;0.80;;;;;;;37.82;33.33;102508.44;4999117;28;20590;-72
2022/08/07 11:40:14;;;;;;;1.60;1.00;;;;;;;39.47;31.85;102506.66;4995591;28;20029;-71
2022/08/07 11:43:01;;;;;;;1.30;0.67;;;;;;;40.39;30.98;102501.88;4978174;28;20556;-71
2022/08/07 11:46:15;;;;;;;1.98;0.90;;;;;;;41.21;30.44;102498.97;4992079;28;20034;-71
2022/08/07 11:49:07;;;;;;;1.83;1.10;;;;;;;41.72;29.49;102501.09;5075082;28;20248;-71
2022/08/07 11:51:57;;;;;;;1.42;0.85;;;;;;;42.33;29.41;102505.88;5071024;28;20120;-71